createdAt,value
2018-07-07T00:00:32.977Z,45.92
2018-07-07T00:03:00.658Z,45.65
2018-07-07T00:05:28.277Z,45.74
2018-07-07T00:07:55.917Z,45.68
2018-07-07T00:10:23.531Z,46.04
2018-07-07T00:12:51.183Z,46.33
2018-07-07T00:15:20.015Z,46.67
2018-07-07T00:17:48.119Z,46.83
2018-07-07T00:20:16.393Z,46.87
2018-07-07T00:22:44.408Z,46.72
2018-07-07T00:25:14.089Z,46.49
2018-07-07T00:27:42.154Z,46.45
2018-07-07T00:30:09.747Z,46.49
2018-07-07T00:32:37.474Z,46.64
2018-07-07T00:35:05.125Z,46.13
2018-07-07T00:37:32.825Z,46.38
2018-07-07T00:40:00.509Z,46.40
2018-07-07T00:42:28.153Z,45.72
2018-07-07T00:44:55.742Z,46.93
2018-07-07T00:47:23.387Z,47.51
2018-07-07T00:49:51.098Z,47.28
2018-07-07T00:52:18.759Z,47.67
2018-07-07T00:54:46.362Z,46.73
2018-07-07T00:57:13.961Z,47.55
2018-07-07T00:59:41.652Z,47.71
2018-07-07T01:02:15.252Z,47.71
2018-07-07T01:04:42.881Z,47.85
2018-07-07T01:07:10.482Z,48.41
2018-07-07T01:09:38.298Z,48.09
2018-07-07T01:12:06.070Z,47.79
2018-07-07T01:14:33.687Z,47.61
2018-07-07T01:17:01.659Z,48.03
2018-07-07T01:19:29.316Z,47.72
2018-07-07T01:21:57.273Z,47.18
2018-07-07T01:24:24.870Z,46.65
2018-07-07T01:26:52.592Z,46.56
2018-07-07T01:29:20.185Z,46.64
2018-07-07T01:31:47.812Z,46.37
2018-07-07T01:34:15.422Z,46.65
2018-07-07T01:36:43.057Z,46.13
2018-07-07T01:39:10.722Z,46.82
2018-07-07T01:41:38.353Z,46.78
2018-07-07T01:44:06.199Z,46.73
2018-07-07T01:46:33.817Z,46.68
2018-07-07T01:49:01.425Z,46.70
2018-07-07T01:51:29.035Z,47.55
2018-07-07T01:53:56.639Z,48.00
2018-07-07T01:56:24.255Z,48.63
2018-07-07T01:58:51.825Z,48.01
2018-07-07T02:01:19.426Z,48.09
2018-07-07T02:03:47.078Z,48.33
2018-07-07T02:06:14.697Z,48.34
2018-07-07T02:08:42.328Z,47.50
2018-07-07T02:11:09.945Z,47.96
2018-07-07T02:13:37.636Z,47.72
2018-07-07T02:16:05.492Z,48.21
2018-07-07T02:18:33.078Z,48.42
2018-07-07T02:21:00.686Z,47.69
2018-07-07T02:23:28.282Z,47.49
2018-07-07T02:25:55.878Z,47.59
2018-07-07T02:28:23.510Z,47.34
2018-07-07T02:30:51.078Z,46.22
2018-07-07T02:33:18.652Z,46.21
2018-07-07T02:35:46.212Z,46.67
2018-07-07T02:38:13.782Z,47.04
2018-07-07T02:40:41.397Z,46.80
2018-07-07T02:43:09.019Z,46.13
2018-07-07T02:45:36.595Z,45.84
2018-07-07T02:48:04.219Z,46.18
2018-07-07T02:50:31.863Z,45.97
2018-07-07T02:52:59.471Z,45.84
2018-07-07T02:55:26.998Z,45.84
2018-07-07T02:57:54.701Z,45.29
2018-07-07T03:00:22.282Z,45.47
2018-07-07T03:02:49.847Z,46.01
2018-07-07T03:05:17.466Z,45.44
2018-07-07T03:07:45.261Z,45.92
2018-07-07T03:10:13.795Z,45.99
2018-07-07T03:12:41.472Z,46.55
2018-07-07T03:15:10.111Z,46.31
2018-07-07T03:17:37.764Z,46.13
2018-07-07T03:20:08.269Z,45.85
2018-07-07T03:22:35.943Z,45.73
2018-07-07T03:25:03.555Z,45.82
2018-07-07T03:27:31.220Z,46.57
2018-07-07T03:29:58.847Z,46.14
2018-07-07T03:32:26.379Z,45.10
2018-07-07T03:34:54.013Z,46.02
2018-07-07T03:37:21.630Z,45.65
2018-07-07T03:39:49.257Z,44.85
2018-07-07T03:42:17.000Z,44.34
2018-07-07T03:44:44.609Z,45.29
2018-07-07T03:47:12.238Z,45.29
2018-07-07T03:49:39.904Z,44.86
2018-07-07T03:52:07.570Z,45.22
2018-07-07T03:54:35.160Z,44.28
2018-07-07T03:57:04.084Z,43.74
2018-07-07T03:59:31.686Z,44.32
2018-07-07T04:01:59.462Z,43.79
2018-07-07T04:04:27.065Z,43.74
2018-07-07T04:06:54.752Z,44.29
2018-07-07T04:09:22.377Z,44.09
2018-07-07T04:11:49.976Z,43.96
2018-07-07T04:14:17.646Z,43.18
2018-07-07T04:16:45.282Z,43.79
2018-07-07T04:19:12.975Z,43.60
2018-07-07T04:21:40.665Z,43.89
2018-07-07T04:24:08.334Z,43.68
2018-07-07T04:26:35.919Z,43.10
2018-07-07T04:29:03.641Z,42.87
2018-07-07T04:31:31.287Z,42.01
2018-07-07T04:33:58.927Z,41.52
2018-07-07T04:36:26.545Z,41.70
2018-07-07T04:38:54.174Z,42.78
2018-07-07T04:41:21.800Z,43.76
2018-07-07T04:43:49.422Z,43.60
2018-07-07T04:46:17.063Z,42.95
2018-07-07T04:48:44.668Z,43.63
2018-07-07T04:51:12.289Z,44.32
2018-07-07T04:53:39.874Z,45.22
2018-07-07T04:56:07.481Z,44.89
2018-07-07T04:58:35.192Z,45.02
2018-07-07T05:01:02.845Z,44.73
2018-07-07T05:03:30.521Z,45.17
2018-07-07T05:05:58.151Z,45.51
2018-07-07T05:08:25.777Z,45.49
2018-07-07T05:10:53.401Z,46.03
2018-07-07T05:13:21.096Z,47.07
2018-07-07T05:15:48.826Z,47.67
2018-07-07T05:18:16.433Z,47.77
2018-07-07T05:20:44.191Z,48.57
2018-07-07T05:23:11.819Z,50.06
2018-07-07T05:25:39.447Z,50.22
2018-07-07T05:28:07.065Z,49.63
2018-07-07T05:30:34.691Z,49.68
2018-07-07T05:33:02.339Z,49.10
2018-07-07T05:35:30.099Z,48.79
2018-07-07T05:37:57.830Z,47.72
2018-07-07T05:40:25.456Z,46.48
2018-07-07T05:42:53.112Z,47.45
2018-07-07T05:45:20.778Z,49.42
2018-07-07T05:47:48.508Z,48.90
2018-07-07T05:50:16.140Z,47.92
2018-07-07T05:52:43.742Z,46.45
2018-07-07T05:55:11.318Z,46.42
2018-07-07T05:57:38.943Z,45.76
2018-07-07T06:00:06.574Z,47.93
2018-07-07T06:02:34.235Z,49.20
2018-07-07T06:05:01.913Z,50.94
2018-07-07T06:07:29.493Z,50.42
2018-07-07T06:09:57.073Z,49.38
2018-07-07T06:12:24.669Z,48.60
2018-07-07T06:14:52.371Z,49.32
2018-07-07T06:17:19.969Z,51.62
2018-07-07T06:19:47.754Z,52.28
2018-07-07T06:22:15.395Z,51.35
2018-07-07T06:24:43.016Z,51.53
2018-07-07T06:27:10.593Z,51.05
2018-07-07T06:29:38.223Z,49.28
2018-07-07T06:32:05.869Z,49.65
2018-07-07T06:34:33.510Z,49.22
2018-07-07T06:37:01.150Z,49.17
2018-07-07T06:39:28.772Z,48.31
2018-07-07T06:41:56.458Z,50.18
2018-07-07T06:44:24.094Z,50.75
2018-07-07T06:46:51.738Z,50.82
2018-07-07T06:49:19.364Z,51.85
2018-07-07T06:51:46.930Z,50.46
2018-07-07T06:54:14.573Z,50.52
2018-07-07T06:56:42.174Z,49.08
2018-07-07T06:59:09.804Z,48.51
2018-07-07T07:01:37.432Z,47.96
2018-07-07T07:04:05.238Z,47.51
2018-07-07T07:06:33.021Z,47.07
2018-07-07T07:09:01.036Z,45.67
2018-07-07T07:11:28.687Z,46.53
2018-07-07T07:13:56.275Z,45.33
2018-07-07T07:16:24.113Z,45.35
2018-07-07T07:18:51.716Z,46.09
2018-07-07T07:21:19.325Z,45.62
2018-07-07T07:23:46.984Z,44.03
2018-07-07T07:26:21.884Z,44.18
2018-07-07T07:28:49.841Z,43.13
2018-07-07T07:31:17.564Z,45.02
2018-07-07T07:33:45.329Z,44.74
2018-07-07T07:36:12.927Z,43.49
2018-07-07T07:38:40.595Z,44.01
2018-07-07T07:41:08.295Z,44.67
2018-07-07T07:43:36.052Z,43.25
2018-07-07T07:46:03.914Z,41.87
2018-07-07T07:48:31.651Z,41.07
2018-07-07T07:50:59.355Z,42.65
2018-07-07T07:53:27.010Z,41.92
2018-07-07T07:55:54.698Z,41.32
2018-07-07T07:58:22.374Z,41.56
2018-07-07T08:00:50.052Z,41.64
2018-07-07T08:03:17.715Z,41.53
2018-07-07T08:05:45.404Z,40.23
2018-07-07T08:08:13.332Z,40.10
2018-07-07T08:10:41.084Z,38.08
2018-07-07T08:13:08.746Z,37.76
2018-07-07T08:15:36.886Z,37.01
2018-07-07T08:18:04.754Z,36.69
2018-07-07T08:20:32.709Z,36.43
2018-07-07T08:23:00.536Z,37.57
2018-07-07T08:25:28.192Z,35.80
2018-07-07T08:27:55.849Z,35.55
2018-07-07T08:30:23.476Z,35.29
2018-07-07T08:32:51.106Z,35.30
2018-07-07T08:35:18.730Z,36.81
2018-07-07T08:37:46.477Z,35.82
2018-07-07T08:40:14.183Z,34.57
2018-07-07T08:42:42.569Z,33.54
2018-07-07T08:45:10.182Z,33.15
2018-07-07T08:47:38.113Z,34.14
2018-07-07T08:50:05.943Z,33.33
2018-07-07T08:52:33.629Z,34.51
2018-07-07T08:55:01.335Z,33.93
2018-07-07T08:57:29.607Z,34.65
2018-07-07T08:59:57.265Z,35.16
2018-07-07T09:02:24.878Z,35.27
2018-07-07T09:04:52.513Z,33.82
2018-07-07T09:07:20.248Z,32.90
2018-07-07T09:09:47.848Z,31.96
2018-07-07T09:12:16.386Z,30.59
2018-07-07T09:14:44.087Z,29.33
2018-07-07T09:17:11.806Z,28.38
2018-07-07T09:19:39.702Z,28.26
2018-07-07T09:22:07.430Z,28.54
2018-07-07T09:24:35.191Z,26.34
2018-07-07T09:27:02.799Z,25.66
2018-07-07T09:29:30.853Z,26.80
2018-07-07T09:31:58.481Z,25.90
2018-07-07T09:34:26.172Z,26.94
2018-07-07T09:36:53.811Z,24.65
2018-07-07T09:39:21.527Z,23.46
2018-07-07T09:41:49.173Z,24.88
2018-07-07T09:44:16.868Z,26.18
2018-07-07T09:46:44.579Z,24.66
2018-07-07T09:49:12.225Z,25.03
2018-07-07T09:51:39.825Z,24.12
2018-07-07T09:54:07.501Z,23.94
2018-07-07T09:56:35.261Z,24.26
2018-07-07T09:59:02.954Z,23.40
2018-07-07T10:01:30.557Z,23.35
2018-07-07T10:03:58.234Z,23.23
2018-07-07T10:06:25.859Z,24.53
2018-07-07T10:08:53.528Z,24.57
2018-07-07T10:11:21.210Z,24.04
2018-07-07T10:13:48.853Z,23.26
2018-07-07T10:16:16.520Z,22.98
2018-07-07T10:18:44.195Z,23.49
2018-07-07T10:21:12.195Z,22.28
2018-07-07T10:23:39.883Z,21.04
2018-07-07T10:26:07.539Z,21.93
2018-07-07T10:28:35.231Z,22.31
2018-07-07T10:31:02.891Z,22.58
2018-07-07T10:33:30.559Z,22.59
2018-07-07T10:35:58.223Z,23.08
2018-07-07T10:38:25.869Z,23.47
2018-07-07T10:40:53.611Z,25.19
2018-07-07T10:43:21.278Z,24.08
2018-07-07T10:45:49.275Z,23.49
2018-07-07T10:48:16.735Z,23.09
2018-07-07T10:50:44.499Z,23.40
2018-07-07T10:53:12.095Z,22.85
2018-07-07T10:55:39.777Z,23.10
2018-07-07T10:58:07.426Z,22.77
2018-07-07T11:00:35.057Z,22.18
2018-07-07T11:03:02.703Z,22.15
2018-07-07T11:05:30.427Z,21.08
2018-07-07T11:07:58.058Z,21.47
2018-07-07T11:10:25.705Z,21.93
2018-07-07T11:12:53.354Z,21.23
2018-07-07T11:15:21.093Z,21.21
2018-07-07T11:17:48.734Z,21.91
2018-07-07T11:20:16.507Z,20.81
2018-07-07T11:22:44.161Z,21.00
2018-07-07T11:25:12.019Z,21.25
2018-07-07T11:27:39.897Z,20.64
2018-07-07T11:30:07.641Z,19.90
2018-07-07T11:32:35.363Z,18.48
2018-07-07T11:35:03.789Z,18.05
2018-07-07T11:37:31.856Z,17.95
2018-07-07T11:39:59.538Z,17.51
2018-07-07T11:42:32.983Z,17.60
2018-07-07T11:45:00.797Z,18.86
2018-07-07T11:47:28.578Z,17.88
2018-07-07T11:49:56.251Z,16.72
2018-07-07T11:52:23.896Z,16.61
2018-07-07T11:54:51.517Z,16.73
2018-07-07T11:57:19.222Z,15.27
2018-07-07T11:59:46.892Z,15.79
2018-07-07T12:02:14.734Z,15.46
2018-07-07T12:04:42.723Z,14.92
2018-07-07T12:07:10.279Z,15.62
2018-07-07T12:09:37.964Z,13.98
2018-07-07T12:12:05.649Z,13.06
2018-07-07T12:14:33.377Z,12.83
2018-07-07T12:17:01.032Z,11.89
2018-07-07T12:19:28.683Z,11.94
2018-07-07T12:21:57.393Z,11.92
2018-07-07T12:24:25.036Z,11.46
2018-07-07T12:26:54.228Z,12.85
2018-07-07T12:29:21.830Z,13.62
2018-07-07T12:31:49.459Z,13.84
2018-07-07T12:34:17.137Z,12.92
2018-07-07T12:36:44.968Z,13.08
2018-07-07T12:39:12.742Z,13.23
2018-07-07T12:41:40.991Z,13.12
2018-07-07T12:44:08.795Z,12.71
2018-07-07T12:46:36.391Z,12.43
2018-07-07T12:49:03.949Z,13.22
2018-07-07T12:51:31.623Z,12.69
2018-07-07T12:53:59.320Z,12.17
2018-07-07T12:56:27.027Z,12.68
2018-07-07T12:58:54.657Z,12.13
2018-07-07T13:01:22.324Z,12.42
2018-07-07T13:03:49.976Z,13.21
2018-07-07T13:06:17.616Z,12.38
2018-07-07T13:08:45.322Z,11.40
2018-07-07T13:11:13.185Z,11.05
2018-07-07T13:13:40.936Z,12.32
2018-07-07T13:16:08.862Z,13.04
2018-07-07T13:18:36.616Z,12.42
2018-07-07T13:21:04.423Z,9.66
2018-07-07T13:23:33.130Z,8.78
2018-07-07T13:26:01.013Z,7.36
2018-07-07T13:28:28.781Z,8.82
2018-07-07T13:30:56.744Z,9.64
2018-07-07T13:33:24.606Z,9.46
2018-07-07T13:35:52.346Z,9.68
2018-07-07T13:38:20.166Z,8.46
2018-07-07T13:40:47.950Z,6.78
2018-07-07T13:43:15.723Z,5.21
2018-07-07T13:45:43.386Z,4.85
2018-07-07T13:48:11.113Z,4.57
2018-07-07T13:50:38.933Z,4.91
2018-07-07T13:53:06.601Z,4.49
2018-07-07T13:55:34.321Z,4.65
2018-07-07T13:58:02.065Z,4.21
2018-07-07T14:00:29.753Z,4.48
2018-07-07T14:02:57.392Z,5.25
2018-07-07T14:05:25.335Z,5.16
2018-07-07T14:07:53.284Z,4.95
2018-07-07T14:10:20.996Z,6.27
2018-07-07T14:12:49.217Z,5.47
2018-07-07T14:15:16.834Z,4.31
2018-07-07T14:17:44.505Z,5.42
2018-07-07T14:20:12.170Z,6.52
2018-07-07T14:22:40.148Z,7.30
2018-07-07T14:25:07.832Z,6.14
2018-07-07T14:27:36.013Z,5.25
2018-07-07T14:30:03.882Z,5.16
2018-07-07T14:32:31.597Z,4.13
2018-07-07T14:34:59.261Z,4.76
2018-07-07T14:37:26.914Z,5.42
2018-07-07T14:39:57.502Z,4.63
2018-07-07T14:42:44.865Z,5.61
2018-07-07T14:45:16.976Z,5.08
2018-07-07T14:47:45.800Z,5.50
2018-07-07T14:50:13.862Z,6.57
2018-07-07T14:52:41.818Z,6.73
2018-07-07T14:55:09.558Z,7.63
2018-07-07T14:57:38.249Z,7.86
2018-07-07T15:00:06.814Z,8.22
2018-07-07T15:02:34.435Z,6.03
2018-07-07T15:05:02.405Z,6.71
2018-07-07T15:07:30.339Z,6.09
2018-07-07T15:09:58.144Z,8.19
2018-07-07T15:12:25.755Z,7.62
2018-07-07T15:14:54.121Z,10.50
2018-07-07T15:17:21.701Z,10.84
2018-07-07T15:19:49.325Z,10.85
2018-07-07T15:22:16.961Z,11.61
2018-07-07T15:24:44.573Z,11.41
2018-07-07T15:27:12.601Z,11.98
2018-07-07T15:29:40.519Z,13.37
2018-07-07T15:32:08.213Z,13.34
2018-07-07T15:34:35.863Z,13.73
2018-07-07T15:37:03.816Z,14.51
2018-07-07T15:39:31.563Z,13.80
2018-07-07T15:41:59.302Z,15.19
2018-07-07T15:44:27.042Z,14.42
2018-07-07T15:46:54.726Z,14.31
2018-07-07T15:49:22.377Z,14.28
2018-07-07T15:51:49.994Z,14.05
2018-07-07T15:54:18.138Z,14.83
2018-07-07T15:56:45.776Z,14.19
2018-07-07T15:59:13.386Z,13.46
2018-07-07T16:01:40.998Z,10.25
2018-07-07T16:04:08.870Z,10.10
2018-07-07T16:06:36.634Z,8.43
2018-07-07T16:09:05.767Z,6.61
2018-07-07T16:11:33.562Z,7.04
2018-07-07T16:14:01.334Z,7.07
2018-07-07T16:16:29.366Z,8.08
2018-07-07T16:18:57.670Z,7.28
2018-07-07T16:21:25.270Z,6.64
2018-07-07T16:23:52.925Z,6.01
2018-07-07T16:26:20.874Z,5.88
2018-07-07T16:28:48.503Z,6.83
2018-07-07T16:31:16.165Z,9.59
2018-07-07T16:33:43.816Z,7.80
2018-07-07T16:36:11.457Z,9.56
2018-07-07T16:38:39.162Z,8.45
2018-07-07T16:41:06.955Z,8.97
2018-07-07T16:43:34.693Z,9.97
2018-07-07T16:46:02.356Z,9.77
2018-07-07T16:48:30.107Z,9.84
2018-07-07T16:50:57.774Z,9.15
2018-07-07T16:53:25.530Z,10.20
2018-07-07T16:55:53.260Z,8.37
2018-07-07T16:58:21.283Z,8.53
2018-07-07T17:00:49.020Z,8.45
2018-07-07T17:03:16.709Z,8.40
2018-07-07T17:05:44.411Z,9.77
2018-07-07T17:08:12.124Z,9.50
2018-07-07T17:10:40.392Z,10.29
2018-07-07T17:13:08.124Z,9.51
2018-07-07T17:15:35.854Z,10.01
2018-07-07T17:18:04.740Z,9.76
2018-07-07T17:20:33.051Z,11.15
2018-07-07T17:23:01.073Z,11.44
2018-07-07T17:25:28.842Z,10.36
2018-07-07T17:27:56.802Z,10.80
2018-07-07T17:30:24.761Z,10.49
2018-07-07T17:32:53.754Z,10.80
2018-07-07T17:35:21.536Z,10.25
2018-07-07T17:37:49.274Z,9.95
2018-07-07T17:40:17.326Z,10.48
2018-07-07T17:42:45.183Z,12.68
2018-07-07T17:45:12.816Z,12.60
2018-07-07T17:47:41.492Z,12.71
2018-07-07T17:50:09.182Z,13.30
2018-07-07T17:52:36.827Z,14.65
2018-07-07T17:55:06.142Z,13.40
2018-07-07T17:57:35.219Z,12.97
2018-07-07T18:00:03.024Z,12.01
2018-07-07T18:02:30.687Z,11.12
2018-07-07T18:04:59.018Z,11.91
2018-07-07T18:07:26.967Z,13.89
2018-07-07T18:09:54.617Z,13.47
2018-07-07T18:12:22.292Z,12.30
2018-07-07T18:14:49.991Z,11.74
2018-07-07T18:17:17.702Z,12.63
2018-07-07T18:19:45.423Z,13.88
2018-07-07T18:22:13.020Z,14.58
2018-07-07T18:24:40.691Z,14.81
2018-07-07T18:27:08.406Z,15.24
2018-07-07T18:29:36.573Z,16.32
2018-07-07T18:32:04.381Z,16.66
2018-07-07T18:34:32.089Z,17.89
2018-07-07T18:36:59.738Z,19.59
2018-07-07T18:39:27.405Z,19.74
2018-07-07T18:41:55.025Z,20.83
2018-07-07T18:44:22.937Z,21.48
2018-07-07T18:46:50.559Z,21.60
2018-07-07T18:49:18.938Z,22.81
2018-07-07T18:51:46.557Z,22.98
2018-07-07T18:54:14.270Z,22.77
2018-07-07T18:56:41.911Z,23.74
2018-07-07T18:59:09.618Z,23.74
2018-07-07T19:01:37.315Z,23.91
2018-07-07T19:04:05.165Z,24.83
2018-07-07T19:06:32.808Z,25.45
2018-07-07T19:09:00.474Z,25.08
2018-07-07T19:11:28.132Z,25.18
2018-07-07T19:13:56.085Z,25.28
2018-07-07T19:16:23.829Z,26.03
2018-07-07T19:18:51.540Z,26.35
2018-07-07T19:21:24.935Z,26.05
2018-07-07T19:23:58.736Z,26.32
2018-07-07T19:26:32.144Z,27.00
2018-07-07T19:28:59.839Z,26.78
2018-07-07T19:31:27.495Z,27.21
2018-07-07T19:34:01.006Z,27.01
2018-07-07T19:36:34.337Z,27.38
2018-07-07T19:39:01.971Z,27.51
2018-07-07T19:41:29.597Z,28.03
2018-07-07T19:43:57.239Z,28.11
2018-07-07T19:46:24.877Z,28.16
2018-07-07T19:48:52.654Z,27.87
2018-07-07T19:51:20.337Z,28.70
2018-07-07T19:53:48.070Z,28.94
2018-07-07T19:56:15.668Z,29.08
2018-07-07T19:58:43.397Z,28.59
2018-07-07T20:01:11.143Z,29.19
2018-07-07T20:03:38.780Z,29.40
2018-07-07T20:06:06.481Z,29.72
2018-07-07T20:08:34.173Z,29.82
2018-07-07T20:11:01.889Z,30.07
2018-07-07T20:13:29.687Z,30.28
2018-07-07T20:16:19.971Z,30.55
2018-07-07T20:19:16.851Z,30.71
2018-07-07T20:21:52.403Z,31.71
2018-07-07T20:24:21.554Z,31.77
2018-07-07T20:26:55.088Z,31.81
2018-07-07T20:29:22.875Z,32.00
2018-07-07T20:31:51.925Z,31.57
2018-07-07T20:34:24.701Z,31.83
2018-07-07T20:36:52.997Z,32.24
2018-07-07T20:39:20.885Z,32.55
2018-07-07T20:41:49.404Z,33.34
2018-07-07T20:44:17.463Z,33.83
2018-07-07T20:46:45.227Z,33.46
2018-07-07T20:49:12.981Z,33.75
2018-07-07T20:51:40.691Z,34.25
2018-07-07T20:54:09.308Z,34.62
2018-07-07T20:56:37.020Z,34.55
2018-07-07T20:59:04.768Z,34.81
2018-07-07T21:01:32.471Z,35.00
2018-07-07T21:04:00.161Z,35.38
2018-07-07T21:06:28.854Z,35.17
2018-07-07T21:08:56.783Z,35.22
2018-07-07T21:11:24.828Z,35.48
2018-07-07T21:13:52.599Z,35.30
2018-07-07T21:16:20.330Z,35.85
2018-07-07T21:18:47.986Z,36.56
2018-07-07T21:21:15.697Z,35.78
2018-07-07T21:23:43.400Z,35.99
2018-07-07T21:26:11.051Z,35.79
2018-07-07T21:28:38.934Z,36.41
2018-07-07T21:31:06.621Z,36.76
2018-07-07T21:33:34.711Z,36.34
2018-07-07T21:36:02.405Z,36.85
2018-07-07T21:38:30.105Z,36.54
2018-07-07T21:40:57.795Z,37.03
2018-07-07T21:43:25.639Z,37.14
2018-07-07T21:45:53.306Z,36.77
2018-07-07T21:48:20.969Z,36.78
2018-07-07T21:50:48.820Z,36.87
2018-07-07T21:53:16.518Z,36.72
2018-07-07T21:55:44.333Z,37.37
2018-07-07T21:58:17.767Z,37.31
2018-07-07T22:01:09.000Z,36.97
2018-07-07T22:03:42.566Z,37.18
2018-07-07T22:06:12.569Z,37.89
2018-07-07T22:08:40.329Z,38.16
2018-07-07T22:11:07.923Z,37.73
2018-07-07T22:13:35.591Z,38.32
2018-07-07T22:16:03.271Z,38.37
2018-07-07T22:18:30.925Z,38.79
2018-07-07T22:21:11.056Z,38.71
2018-07-07T22:23:38.586Z,39.01
2018-07-07T22:26:06.229Z,38.86
2018-07-07T22:28:33.886Z,38.88
2018-07-07T22:31:01.515Z,38.97
2018-07-07T22:33:29.134Z,38.96
2018-07-07T22:36:02.679Z,39.37
2018-07-07T22:38:36.214Z,39.62
2018-07-07T22:41:03.853Z,39.80
2018-07-07T22:43:31.447Z,40.02
2018-07-07T22:45:59.830Z,39.77
2018-07-07T22:48:28.014Z,39.88
2018-07-07T22:50:55.684Z,40.22
2018-07-07T22:53:23.349Z,39.88
2018-07-07T22:55:50.947Z,40.75
2018-07-07T22:58:18.649Z,40.47
2018-07-07T23:00:46.297Z,41.23
2018-07-07T23:03:14.340Z,41.30
2018-07-07T23:05:42.017Z,41.32
2018-07-07T23:08:10.365Z,41.47
2018-07-07T23:10:38.063Z,42.03
2018-07-07T23:13:06.080Z,42.37
2018-07-07T23:15:34.491Z,42.52
2018-07-07T23:18:02.093Z,42.47
2018-07-07T23:20:30.088Z,42.76
2018-07-07T23:22:57.677Z,42.56
2018-07-07T23:25:25.329Z,42.44
2018-07-07T23:27:52.999Z,42.52
2018-07-07T23:30:21.000Z,43.25
2018-07-07T23:32:49.457Z,43.36
2018-07-07T23:35:17.110Z,43.51
2018-07-07T23:37:44.714Z,43.14
2018-07-07T23:40:12.340Z,43.68
2018-07-07T23:42:40.526Z,44.06
2018-07-07T23:45:09.377Z,44.32
2018-07-07T23:47:37.060Z,43.88
2018-07-07T23:50:05.620Z,44.34
2018-07-07T23:52:33.258Z,44.49
2018-07-07T23:55:01.506Z,45.06
2018-07-07T23:57:29.200Z,45.28
2018-07-07T23:59:57.408Z,45.08
